Weather observations for the past three days for
Cambridge Municipal Airport
Imperial (Metric)
Date Time (cdt) Wind (mph) Vis. (mi.) Weather Sky Cond. Temperature (ºF) Relative Humidity Wind Chill (°F) Heat Index (°F) Pressure Precipitation (in)
Air Dwpt 6 hour altimeter (in) sea level (mb) 1 hr 3 hr 6 hr
Max. Min.
05 07:15 W 3 10.00 Fair CLR 69.8 64.4 83% 29.91 0.0
05 06:55 NW 3 10.00 Fair CLR 69.8 64.4 83% 29.91 0.0
05 06:35 W 5 10.00 Fair CLR 69.8 64.4 83% 29.9 0.0
05 06:15 NW 7 10.00 Fair CLR 68 64.4 88% 29.91 0.0
05 05:55 W 5 10.00 Fair CLR 69.8 64.4 83% 29.91 0.0
05 05:35 W 3 10.00 Fair CLR 71.6 64.4 78% 29.91 0.0
05 05:15 Calm 10.00 Fair CLR 73.4 64.4 74% 29.91 0.0
05 04:55 S 5 10.00 Fair CLR 75.2 64.4 69% 77 29.91 0.0
05 04:35 Calm 10.00 Fair CLR 75.2 64.4 69% 77 29.92 0.0
05 04:15 S 6 10.00 Fair CLR 75.2 64.4 69% 77 29.92 0.0
05 03:55 SE 5 10.00 Fair CLR 77 64.4 65% 79 29.91 0.0
05 03:35 S 7 10.00 Fair CLR 77 64.4 65% 79 29.92 0.0
05 03:15 S 5 10.00 Fair CLR 77 64.4 65% 79 29.91 0.0
05 02:55 S 5 10.00 Fair CLR 77 64.4 65% 79 29.92 0.0
05 02:35 SE 7 10.00 Fair CLR 78.8 64.4 61% 81 29.92 0.0
05 02:15 E 8 10.00 Fair CLR 77 64.4 65% 79 29.92 0.0
05 01:55 SE 8 10.00 Fair CLR 77 64.4 65% 79 29.91 0.0
05 01:35 E 8 10.00 Fair CLR 77 64.4 65% 79 29.92 0.0
05 01:15 SE 7 10.00 Fair CLR 78.8 64.4 61% 81 29.92 0.0
05 00:55 SE 6 10.00 Fair CLR 78.8 64.4 61% 81 29.91 0.0
05 00:35 SE 6 10.00 Fair CLR 78.8 64.4 61% 81 29.91 0.0
05 00:15 SE 8 10.00 Fair CLR 80.6 64.4 58% 82 29.91 0.0
04 23:55 SE 7 10.00 Fair CLR 82.4 62.6 51% 83 29.91 0.0
04 23:35 SE 7 10.00 Fair CLR 82.4 62.6 51% 83 29.91 0.0
04 23:15 E 6 10.00 Fair CLR 84.2 64.4 51% 86 29.91 0.0
04 22:55 SE 7 10.00 Fair CLR 82.4 64.4 55% 84 29.9 0.0
04 22:35 E 6 10.00 Fair CLR 84.2 64.4 51% 86 29.9 0.0
04 22:15 SE 7 10.00 Fair CLR 84.2 64.4 51% 86 29.89 0.0
04 21:55 E 8 10.00 Fair CLR 86 66.2 52% 88 29.89 0.0
04 21:35 SE 8 10.00 Fair CLR 84.2 66.2 55% 87 29.88 0.0
04 21:15 E 8 10.00 Fair CLR 84.2 66.2 55% 87 29.87 0.0
04 20:55 SE 8 10.00 Fair CLR 84.2 66.2 55% 87 29.86 0.0
04 20:35 E 9 10.00 Fair CLR 84.2 66.2 55% 87 29.86 0.0
04 20:15 E 10 10.00 Fair CLR 86 66.2 52% 88 29.86 0.0
04 19:55 E 12 9.00 Fair CLR 86 66.2 52% 88 29.86 0.0
04 19:35 E 14 10.00 Fair CLR 87.8 62.6 43% 88 29.86 0.0
04 19:15 E 13 G 20 10.00 Fair CLR 87.8 60.8 40% 88 29.85 0.0
04 18:55 SE 14 G 25 10.00 Fair CLR 87.8 59 38% 87 29.85 0.0
04 18:35 SE 15 G 25 10.00 Fair CLR 91.4 64.4 41% 93 29.85 0.0
04 18:15 SE 15 10.00 Thunderstorm in Vicinity CLR 96.8 66.2 37% 100 29.84 0.0
04 17:35 SE 10 G 16 10.00 Fair CLR 98.6 68 37% 104 29.84 0.0
04 17:15 SE 12 G 21 10.00 Fair CLR 96.8 68 39% 102 29.84 0.0
04 16:55 SE 12 9.00 Fair CLR 96.8 68 39% 102 29.85 0.0
04 16:35 SE 10 10.00 Fair CLR 95 68 41% 100 29.85 0.0
04 16:15 SE 10 G 18 10.00 Fair CLR 95 68 41% 100 29.85 0.0
04 15:55 SE 15 10.00 Fair CLR 96.8 69.8 42% 103 29.85 0.0
04 15:35 SE 15 G 22 10.00 Fair CLR 96.8 68 39% 102 29.86 0.0
04 15:15 SE 16 G 25 10.00 Fair CLR 95 71.6 47% 103 29.86 0.0
04 14:55 E 16 G 23 10.00 Fair CLR 91.4 73.4 56% 100 29.85 0.0
04 14:35 E 16 10.00 Fair CLR 89.6 71.6 55% 96 29.86 0.0
04 14:15 E 15 10.00 Fair CLR 89.6 71.6 55% 96 29.87 0.0
04 13:55 SE 13 10.00 Fair CLR 89.6 69.8 52% 95 29.89 0.0
04 13:35 SE 12 10.00 Fair CLR 87.8 71.6 59% 94 29.89 0.0
04 13:10 SE 10 G 16 10.00 Fair CLR 84.2 71.6 66% 90 29.9 0.0
04 12:55 SE 8 G 14 10.00 Fair CLR 82.4 71.6 70% 87 29.9 0.0
04 12:35 Vrbl 6 10.00 Fair CLR 82.4 71.6 70% 87 29.91 0.0
04 12:15 SE 7 10.00 Fair CLR 80.6 69.8 70% 84 29.91 0.0
04 11:55 SE 6 10.00 Fair CLR 80.6 69.8 70% 84 29.91 0.0
04 11:35 SE 7 10.00 Fair CLR 80.6 69.8 70% 84 29.91 0.0
04 11:15 SE 8 10.00 Fair CLR 80.6 69.8 70% 84 29.91 0.0
04 10:55 Calm 10.00 Fair CLR 78.8 69.8 74% 81 29.91 0.0 0.04
04 10:35 S 6 10.00 Fair CLR 77 69.8 79% 79 29.9 0.0
04 10:15 NW 9 5.00 Light Rain Fog/Mist FEW047 FEW055 SCT075 73.4 69.8 89% 29.9 0.0
04 09:55 E 7 6.00 Thunderstorm Light Rain Fog/Mist FEW055 FEW065 SCT075 71.6 69.8 94% 29.89 0.0 0.01
04 09:35 Calm 9.00 Light Rain CLR 73.4 68 83% 29.9 0.0
04 09:15 Calm 9.00 Fair CLR 73.4 68 83% 29.9 0.0
04 08:55 E 5 10.00 Fair CLR 73.4 66.2 78% 29.89 0.0
04 08:35 E 7 8.00 Fair CLR 71.6 66.2 83% 29.89 0.0
04 08:15 E 7 10.00 Fair CLR 71.6 66.2 83% 29.89 0.0
04 07:55 E 7 9.00 Fair CLR 71.6 66.2 83% 29.88 0.0
04 07:35 E 6 9.00 Fair CLR 69.8 66.2 88% 29.88 0.0
04 07:15 E 7 10.00 Fair CLR 68 64.4 88% 29.88 0.0
04 06:55 E 5 10.00 Fair CLR 68 64.4 88% 29.87 0.0
04 06:35 NE 5 10.00 Fair CLR 68 64.4 88% 29.87 0.0
04 06:15 E 5 10.00 Fair CLR 68 64.4 88% 29.87 0.0
04 05:55 NE 5 9.00 Fair CLR 68 64.4 88% 29.87 0.0
04 05:35 E 5 10.00 Fair CLR 68 64.4 88% 29.87 0.0
04 05:15 E 5 10.00 Fair CLR 68 64.4 88% 29.87 0.0
04 04:55 E 5 10.00 Fair CLR 69.8 64.4 83% 29.86 0.0
04 04:35 SE 6 10.00 Fair CLR 69.8 64.4 83% 29.86 0.0
04 04:15 E 6 10.00 Fair CLR 69.8 64.4 83% 29.85 0.0
04 03:55 E 6 10.00 Fair CLR 69.8 64.4 83% 29.85 0.0
04 03:35 E 6 10.00 Fair CLR 69.8 64.4 83% 29.85 0.0
04 03:15 E 7 10.00 Fair CLR 69.8 64.4 83% 29.85 0.0
04 02:55 NE 8 10.00 Fair CLR 69.8 66.2 88% 29.85 0.0
04 02:35 E 7 10.00 Fair CLR 69.8 64.4 83% 29.86 0.0
04 02:15 E 6 10.00 Fair CLR 69.8 64.4 83% 29.86 0.0
04 01:55 E 6 10.00 Fair CLR 69.8 64.4 83% 29.86 0.0
04 01:35 E 6 10.00 Fair CLR 66.2 62.6 88% 29.87 0.0
04 01:15 SE 6 10.00 Fair CLR 68 62.6 83% 29.87 0.0
04 00:55 Vrbl 6 G 21 10.00 Fair CLR 69.8 62.6 78% 29.87 0.0
04 00:35 NE 6 10.00 Fair CLR 71.6 62.6 73% 29.85 0.0
04 00:10 Calm 10.00 Fair CLR 69.8 62.6 78% 29.85 0.0
03 23:55 Calm 10.00 Fair CLR 71.6 62.6 73% 29.85 0.0
03 23:35 Calm 10.00 Fair CLR 71.6 62.6 73% 29.85 0.0
03 23:15 Calm 10.00 Fair CLR 75.2 62.6 65% 77 29.86 0.0
03 22:55 N 9 10.00 Fair CLR 77 62.6 61% 79 29.85 0.0
03 22:35 N 8 10.00 Fair CLR 77 62.6 61% 79 29.86 0.0
03 22:15 N 8 10.00 Fair CLR 77 62.6 61% 79 29.85 0.0
03 21:55 NW 5 10.00 Fair CLR 78.8 62.6 58% 80 29.85 0.0
03 21:35 N 7 10.00 Fair CLR 80.6 62.6 54% 82 29.84 0.0
03 21:15 N 9 10.00 Fair CLR 80.6 62.6 54% 82 29.84 0.0
03 20:55 N 9 10.00 Fair CLR 82.4 60.8 48% 83 29.84 0.0
03 20:35 N 9 10.00 Fair CLR 84.2 60.8 45% 84 29.83 0.0
03 20:15 N 8 10.00 Fair CLR 84.2 60.8 45% 84 29.82 0.0
03 19:55 N 7 10.00 Fair CLR 86 60.8 43% 86 29.81 0.0
03 19:35 N 6 10.00 Fair CLR 89.6 60.8 38% 90 29.81 0.0
03 19:15 N 7 10.00 Fair CLR 91.4 59 34% 91 29.81 0.0
03 18:55 N 8 G 14 10.00 Fair CLR 93.2 57.2 30% 92 29.81 0.0
03 18:35 Vrbl 6 10.00 Fair CLR 93.2 59 32% 93 29.8 0.0
03 18:15 Vrbl 6 10.00 Fair CLR 95 62.6 34% 96 29.8 0.0
03 17:55 Calm 10.00 Fair CLR 93.2 62.6 36% 94 29.8 0.0
03 17:35 Vrbl 5 10.00 Fair CLR 95 62.6 34% 96 29.79 0.0
03 16:55 NW 9 10.00 Fair CLR 95 62.6 34% 96 29.8 0.0
03 16:35 N 8 10.00 Fair CLR 93.2 64.4 39% 95 29.79 0.0
03 16:15 W 7 10.00 Fair CLR 93.2 64.4 39% 95 29.8 0.0
03 15:55 W 9 10.00 Fair CLR 93.2 64.4 39% 95 29.8 0.0
03 15:35 Vrbl 7 10.00 Fair CLR 93.2 62.6 36% 94 29.8 0.0
03 15:15 Vrbl 5 10.00 Fair CLR 91.4 62.6 38% 92 29.8 0.0
03 14:55 W 6 10.00 Fair CLR 91.4 62.6 38% 92 29.8 0.0
03 14:35 Vrbl 3 10.00 Fair CLR 91.4 62.6 38% 92 29.81 0.0
03 14:15 Vrbl 5 10.00 Fair CLR 89.6 62.6 41% 90 29.81 0.0
03 13:55 Calm 10.00 Fair CLR 89.6 62.6 41% 90 29.82 0.0
03 13:35 SE 6 10.00 Fair CLR 89.6 62.6 41% 90 29.82 0.0
03 13:15 Vrbl 3 10.00 Fair CLR 89.6 64.4 43% 91 29.82 0.0
03 12:55 Calm 10.00 Fair CLR 87.8 62.6 43% 88 29.83 0.0
03 12:35 Vrbl 3 10.00 Fair CLR 87.8 62.6 43% 88 29.84 0.0
03 12:15 Vrbl 5 10.00 Fair CLR 86 62.6 46% 87 29.84 0.0
03 11:55 Vrbl 6 10.00 Fair CLR 86 62.6 46% 87 29.83 0.0
03 11:35 Vrbl 6 G 13 10.00 Fair CLR 86 62.6 46% 87 29.83 0.0
03 11:15 Calm 10.00 Fair CLR 84.2 62.6 48% 85 29.82 0.0
03 10:55 Vrbl 5 10.00 Fair CLR 82.4 62.6 51% 83 29.82 0.0
03 10:35 SW 6 10.00 Fair CLR 82.4 62.6 51% 83 29.82 0.0
03 10:15 SW 7 10.00 Fair CLR 82.4 62.6 51% 83 29.82 0.0
03 09:55 S 10 10.00 Fair CLR 80.6 62.6 54% 82 29.82 0.0
03 09:35 S 7 10.00 Fair CLR 78.8 62.6 58% 80 29.83 0.0
03 09:15 Vrbl 6 10.00 Fair CLR 78.8 62.6 58% 80 29.83 0.0
03 08:55 SE 6 10.00 Fair CLR 75.2 62.6 65% 77 29.83 0.0
03 08:35 SE 6 8.00 Fair CLR 71.6 60.8 69% 29.83 0.0
03 08:15 SE 7 8.00 Fair CLR 71.6 60.8 69% 29.83 0.0
03 07:55 E 5 7.00 Fair CLR 69.8 60.8 73% 29.83 0.0
03 07:35 E 6 10.00 Fair CLR 68 60.8 78% 29.83 0.0
03 07:15 NE 5 7.00 Fair CLR 68 60.8 78% 29.83 0.0
03 06:55 NE 6 10.00 Fair CLR 68 60.8 78% 29.83 0.0
03 06:35 Calm 10.00 Fair CLR 68 60.8 78% 29.83 0.0
03 06:15 Calm 10.00 Fair CLR 69.8 60.8 73% 29.82 0.0
03 05:55 Calm 10.00 Fair CLR 68 60.8 78% 29.82 0.0
03 05:35 NW 6 10.00 Fair CLR 71.6 60.8 69% 29.83 0.0
03 05:15 Calm 10.00 Fair CLR 71.6 60.8 69% 29.82 0.0
03 04:55 SW 6 10.00 Fair CLR 73.4 60.8 65% 29.83 0.0
03 04:35 Calm 10.00 Fair CLR 73.4 60.8 65% 29.82 0.0
03 04:15 Calm 10.00 Fair CLR 75.2 60.8 61% 77 29.82 0.0
03 03:55 S 7 10.00 Fair CLR 75.2 60.8 61% 77 29.82 0.0
03 03:35 S 6 10.00 Fair CLR 75.2 60.8 61% 77 29.82 0.0
03 03:15 S 6 10.00 Fair CLR 75.2 62.6 65% 77 29.82 0.0
03 02:55 SW 7 10.00 Fair CLR 75.2 60.8 61% 77 29.82 0.0
03 02:35 SW 6 10.00 Fair CLR 73.4 60.8 65% 29.82 0.0
03 02:15 Vrbl 5 10.00 Fair CLR 75.2 60.8 61% 77 29.82 0.0
03 01:55 SW 6 10.00 Fair CLR 75.2 60.8 61% 77 29.82 0.0
03 01:35 Calm 10.00 Fair CLR 75.2 60.8 61% 77 29.82 0.0
03 01:15 S 6 10.00 Fair CLR 75.2 60.8 61% 77 29.81 0.0
03 00:55 SE 6 10.00 Fair CLR 77 59 54% 79 29.81 0.0
03 00:35 S 5 10.00 Fair CLR 75.2 59 57% 78 29.81 0.0
03 00:15 SW 3 10.00 Fair CLR 73.4 59 61% 29.8 0.0
02 23:55 S 5 10.00 Fair CLR 77 59 54% 79 29.8 0.0
02 23:35 Calm 10.00 Fair CLR 78.8 59 51% 80 29.8 0.0
02 23:15 SE 7 10.00 Fair CLR 77 59 54% 79 29.79 0.0
02 22:55 S 8 8.00 Fair CLR 80.6 59 48% 81 29.79 0.0
02 22:35 S 8 10.00 Fair CLR 80.6 59 48% 81 29.8 0.0
02 22:15 SE 6 10.00 Fair CLR 82.4 59 45% 82 29.8 0.0
02 21:55 S 6 10.00 Fair CLR 84.2 60.8 45% 84 29.8 0.0
02 21:35 S 6 10.00 Fair CLR 84.2 62.6 48% 85 29.8 0.0
02 21:15 SW 3 10.00 Fair CLR 84.2 62.6 48% 85 29.79 0.0
02 20:55 E 5 10.00 Fair CLR 84.2 64.4 51% 86 29.78 0.0
02 20:35 E 5 8.00 Fair CLR 86 64.4 49% 87 29.78 0.0
02 20:15 E 5 8.00 Fair CLR 87.8 64.4 46% 89 29.77 0.0
02 19:55 E 3 10.00 Fair CLR 91.4 64.4 41% 93 29.77 0.0
02 19:35 E 3 10.00 Fair CLR 93.2 64.4 39% 95 29.78 0.0
02 19:15 Calm 10.00 Fair CLR 95 62.6 34% 96 29.78 0.0
02 18:55 Calm 10.00 Fair CLR 96.8 62.6 32% 98 29.78 0.0
02 18:35 SW 6 10.00 Fair CLR 98.6 62.6 31% 100 29.78 0.0
02 18:15 SW 8 10.00 Fair CLR 98.6 60.8 29% 99 29.79 0.0
02 17:55 SW 9 10.00 Fair CLR 98.6 60.8 29% 99 29.79 0.0
02 17:35 SW 10 G 17 10.00 Fair CLR 98.6 60.8 29% 99 29.79 0.0
02 17:15 S 9 G 18 10.00 Fair CLR 98.6 60.8 29% 99 29.79 0.0
02 16:55 S 12 10.00 Fair CLR 98.6 59 27% 98 29.8 0.0
02 16:35 S 12 G 18 10.00 Fair CLR 98.6 60.8 29% 99 29.8 0.0
02 16:15 Vrbl 7 G 17 10.00 Fair CLR 98.6 62.6 31% 100 29.81 0.0
02 15:55 S 14 10.00 Fair CLR 98.6 60.8 29% 99 29.82 0.0
02 15:35 SW 8 G 17 10.00 Fair CLR 98.6 62.6 31% 100 29.83 0.0
02 15:15 S 14 G 22 10.00 Fair CLR 96.8 60.8 30% 97 29.84 0.0
02 14:55 S 9 G 17 10.00 Fair CLR 96.8 62.6 32% 98 29.85 0.0
02 14:35 S 10 G 16 10.00 Fair CLR 96.8 62.6 32% 98 29.85 0.0
02 14:15 S 14 10.00 Fair CLR 95 62.6 34% 96 29.86 0.0
02 13:55 SW 9 G 15 10.00 Fair CLR 95 64.4 36% 97 29.86 0.0
02 13:35 S 12 10.00 Fair CLR 93.2 64.4 39% 95 29.87 0.0
02 13:15 S 9 10.00 Fair CLR 93.2 64.4 39% 95 29.88 0.0
02 12:55 S 12 10.00 Fair CLR 93.2 62.6 36% 94 29.89 0.0
02 12:35 S 9 10.00 Fair CLR 91.4 64.4 41% 93 29.89 0.0
02 12:15 S 10 10.00 Fair CLR 89.6 64.4 43% 91 29.9 0.0
02 11:55 S 8 G 14 10.00 Fair CLR 87.8 64.4 46% 89 29.9 0.0
02 11:35 S 8 10.00 Fair CLR 87.8 64.4 46% 89 29.9 0.0
02 11:15 E 5 10.00 Fair CLR 82.4 64.4 55% 84 29.91 0.0
02 10:55 Vrbl 5 10.00 Fair CLR 80.6 64.4 58% 82 29.91 0.0
02 10:35 SE 5 10.00 Fair CLR 78.8 64.4 61% 81 29.91 0.0
02 10:15 Calm 10.00 Fair CLR 75.2 62.6 65% 77 29.91 0.0
02 09:55 Calm 10.00 Fair CLR 75.2 64.4 69% 77 29.92 0.0
02 09:35 Calm 10.00 Fair CLR 73.4 64.4 74% 29.92 0.0
02 09:15 Calm 10.00 Fair CLR 71.6 64.4 78% 29.92 0.0
02 08:55 SE 5 9.00 Fair CLR 69.8 64.4 83% 29.93 0.0
02 08:35 E 3 10.00 Fair CLR 69.8 64.4 83% 29.92 0.0
02 08:15 Calm 8.00 Fair CLR 69.8 62.6 78% 29.92 0.0
02 07:55 Calm 10.00 Fair CLR 68 62.6 83% 29.92 0.0
02 07:35 Calm 10.00 Fair CLR 68 60.8 78% 29.92 0.0
Date Time (cdt) Wind (mph) Vis. (mi.) Weather Sky Cond. Air Dwpt Max. Min. Relative Humidity Wind Chill (°F) Heat Index (°F) altimeter (in) sea level (mb) 1 hr 3 hr 6 hr
6 hour
Temperature (ºF) Pressure Precipitation (in)